createdAt,value
2023-03-22T00:03:39.334Z,2.69
2023-03-22T00:08:03.051Z,2.72
2023-03-22T00:12:27.035Z,2.77
2023-03-22T00:16:41.200Z,2.82
2023-03-22T00:21:05.143Z,2.83
2023-03-22T00:25:28.872Z,2.85
2023-03-22T00:29:52.611Z,2.86
2023-03-22T00:34:16.336Z,2.88
2023-03-22T00:38:42.837Z,2.97
2023-03-22T00:43:07.282Z,3.05
2023-03-22T00:47:31.056Z,3.03
2023-03-22T00:51:54.829Z,3.04
2023-03-22T00:56:18.748Z,3.09
2023-03-22T01:00:42.662Z,3.17
2023-03-22T01:05:06.563Z,3.27
2023-03-22T01:09:30.384Z,3.34
2023-03-22T01:13:54.156Z,3.37
2023-03-22T01:18:18.011Z,3.43
2023-03-22T01:22:41.821Z,3.45
2023-03-22T01:27:05.832Z,3.46
2023-03-22T01:31:29.631Z,3.47
2023-03-22T01:35:53.434Z,3.46
2023-03-22T01:40:17.276Z,3.41
2023-03-22T01:44:46.980Z,3.36
2023-03-22T01:49:10.791Z,3.32
2023-03-22T01:53:34.645Z,3.36
2023-03-22T01:57:58.424Z,3.39
2023-03-22T02:02:22.258Z,3.43
2023-03-22T02:06:49.351Z,3.47
2023-03-22T02:11:13.132Z,3.51
2023-03-22T02:15:37.022Z,3.52
2023-03-22T02:20:12.813Z,3.54
2023-03-22T02:24:51.938Z,3.56
2023-03-22T02:29:23.653Z,3.58
2023-03-22T02:33:41.540Z,3.56
2023-03-22T02:38:17.429Z,3.56
2023-03-22T02:42:42.776Z,3.58
2023-03-22T02:47:09.585Z,3.63
2023-03-22T02:51:36.268Z,3.69
2023-03-22T02:56:11.782Z,3.73
2023-03-22T03:00:35.542Z,3.78
2023-03-22T03:04:59.344Z,3.79
2023-03-22T03:09:23.263Z,3.83
2023-03-22T03:13:46.755Z,3.85
2023-03-22T03:18:15.874Z,3.89
2023-03-22T03:22:58.150Z,3.95
2023-03-22T03:27:34.077Z,4.04
2023-03-22T03:31:58.007Z,4.12
2023-03-22T03:36:25.599Z,4.24
2023-03-22T03:40:49.619Z,4.33
2023-03-22T03:45:13.443Z,4.43
2023-03-22T03:49:30.958Z,4.54
2023-03-22T03:53:44.537Z,4.61
2023-03-22T03:58:08.317Z,4.71
2023-03-22T04:02:32.242Z,4.79
2023-03-22T04:06:56.063Z,4.83
2023-03-22T04:11:20.014Z,4.90
2023-03-22T04:15:43.837Z,4.97
2023-03-22T04:20:07.568Z,5.01
2023-03-22T04:24:31.352Z,5.05
2023-03-22T04:28:55.164Z,5.10
2023-03-22T04:33:18.914Z,5.15
2023-03-22T04:37:41.157Z,5.17
2023-03-22T04:41:57.679Z,5.22
2023-03-22T04:46:14.318Z,5.27
2023-03-22T04:50:30.676Z,5.32
2023-03-22T04:54:54.408Z,5.39
2023-03-22T04:59:18.268Z,5.44
2023-03-22T05:03:42.132Z,5.47
2023-03-22T05:08:05.999Z,5.53
2023-03-22T05:12:29.968Z,5.59
2023-03-22T05:17:08.902Z,5.65
2023-03-22T05:21:32.948Z,5.68
2023-03-22T05:25:56.811Z,5.72
2023-03-22T05:30:20.782Z,5.76
2023-03-22T05:34:50.222Z,5.78
2023-03-22T05:39:17.120Z,5.81
2023-03-22T05:43:39.798Z,5.85
2023-03-22T05:48:03.713Z,5.89
2023-03-22T05:52:27.577Z,5.89
2023-03-22T05:56:51.440Z,5.93
2023-03-22T06:01:15.364Z,5.99
2023-03-22T06:05:42.106Z,6.03
2023-03-22T06:10:06.042Z,6.08
2023-03-22T06:14:29.940Z,6.15
2023-03-22T06:19:00.345Z,6.23
2023-03-22T06:23:24.268Z,6.27
2023-03-22T06:27:48.205Z,6.34
2023-03-22T06:32:12.200Z,6.37
2023-03-22T06:36:35.979Z,6.42
2023-03-22T06:40:59.723Z,6.48
2023-03-22T06:45:23.478Z,6.54
2023-03-22T06:49:47.269Z,6.61
2023-03-22T06:54:11.162Z,6.66
2023-03-22T06:58:34.971Z,6.69
2023-03-22T07:02:58.495Z,6.76
2023-03-22T07:07:25.181Z,6.83
2023-03-22T07:11:52.004Z,6.89
2023-03-22T07:16:18.106Z,6.94
2023-03-22T07:20:45.156Z,7.01
2023-03-22T07:25:08.979Z,7.05
2023-03-22T07:29:31.605Z,7.07
2023-03-22T07:33:55.421Z,7.10
2023-03-22T07:38:19.344Z,7.15
2023-03-22T07:42:43.144Z,7.23
2023-03-22T07:47:12.949Z,7.36
2023-03-22T07:51:36.771Z,7.43
2023-03-22T07:56:00.684Z,7.54
2023-03-22T08:00:24.438Z,7.62
2023-03-22T08:04:51.137Z,7.73
2023-03-22T08:09:18.680Z,7.84
2023-03-22T08:13:42.766Z,8.01
2023-03-22T08:18:06.539Z,8.25
2023-03-22T08:22:30.386Z,8.46
2023-03-22T08:26:52.734Z,8.63
2023-03-22T08:31:22.332Z,8.72
2023-03-22T08:35:46.374Z,8.79
2023-03-22T08:40:10.424Z,8.85
2023-03-22T08:44:43.286Z,8.85
2023-03-22T08:49:07.290Z,8.82
2023-03-22T08:53:37.356Z,8.85
2023-03-22T08:58:05.694Z,8.88
2023-03-22T09:02:29.454Z,8.92
2023-03-22T09:06:53.291Z,9.04
2023-03-22T09:11:17.995Z,9.20
2023-03-22T09:15:42.256Z,9.43
2023-03-22T09:20:14.556Z,9.72
2023-03-22T09:24:33.676Z,9.96
2023-03-22T09:28:52.789Z,10.14
2023-03-22T09:33:16.753Z,10.37
2023-03-22T09:37:40.609Z,10.57
2023-03-22T09:42:06.985Z,10.81
2023-03-22T09:46:37.159Z,10.96
2023-03-22T09:50:49.798Z,11.05
2023-03-22T09:55:19.652Z,11.14
2023-03-22T09:59:42.753Z,11.23
2023-03-22T10:04:22.172Z,11.31
2023-03-22T10:08:53.681Z,11.37
2023-03-22T10:13:26.548Z,11.41
2023-03-22T10:17:50.287Z,11.45
2023-03-22T10:22:14.028Z,11.46
2023-03-22T10:26:37.876Z,11.47
2023-03-22T10:31:08.051Z,11.48
2023-03-22T10:35:11.553Z,11.56
2023-03-22T10:39:29.154Z,11.59
2023-03-22T10:43:52.944Z,11.66
2023-03-22T10:48:19.265Z,11.73
2023-03-22T10:52:43.560Z,11.85
2023-03-22T10:57:07.493Z,11.97
2023-03-22T11:01:31.486Z,12.11
2023-03-22T11:06:01.212Z,12.25
2023-03-22T11:10:25.024Z,12.46
2023-03-22T11:14:54.624Z,12.64
2023-03-22T11:19:17.879Z,12.82
2023-03-22T11:23:41.693Z,13.15
2023-03-22T11:28:08.041Z,13.51
2023-03-22T11:32:40.754Z,13.79
2023-03-22T11:37:04.664Z,14.00
2023-03-22T11:41:28.264Z,14.15
2023-03-22T11:45:54.881Z,14.32
2023-03-22T11:50:27.853Z,14.54
2023-03-22T11:54:51.621Z,14.65
2023-03-22T11:59:27.860Z,14.74
2023-03-22T12:03:51.789Z,14.87
2023-03-22T12:08:15.775Z,14.97
2023-03-22T12:12:42.573Z,15.11
2023-03-22T12:17:06.472Z,15.18
2023-03-22T12:21:32.897Z,15.31
2023-03-22T12:25:56.656Z,15.38
2023-03-22T12:30:20.416Z,15.52
2023-03-22T12:34:44.314Z,15.56
2023-03-22T12:39:08.230Z,15.41
2023-03-22T12:43:41.112Z,15.29
2023-03-22T12:48:20.082Z,15.29
2023-03-22T12:52:45.606Z,15.23
2023-03-22T12:57:12.952Z,15.15
2023-03-22T13:01:39.878Z,15.09
2023-03-22T13:06:04.279Z,15.13
2023-03-22T13:10:30.795Z,15.18
2023-03-22T13:14:54.675Z,15.33
2023-03-22T13:19:40.108Z,15.45
2023-03-22T13:24:06.659Z,15.51
2023-03-22T13:28:32.015Z,15.71
2023-03-22T13:33:01.895Z,15.78
2023-03-22T13:37:05.422Z,15.64
2023-03-22T13:41:47.204Z,15.55
2023-03-22T13:46:11.170Z,15.56
2023-03-22T13:50:41.087Z,15.56
2023-03-22T13:55:07.841Z,15.42
2023-03-22T13:59:34.338Z,15.35
2023-03-22T14:03:58.183Z,15.24
2023-03-22T14:08:22.137Z,15.15
2023-03-22T14:12:49.743Z,15.10
2023-03-22T14:17:19.548Z,15.06
2023-03-22T14:21:46.089Z,15.08
